createdAt,value
2018-07-01T00:00:21.639Z,1.12
2018-07-01T00:02:50.122Z,0.80
2018-07-01T00:05:21.107Z,1.02
2018-07-01T00:07:49.731Z,1.05
2018-07-01T00:10:18.231Z,0.90
2018-07-01T00:12:46.638Z,1.22
2018-07-01T00:15:15.026Z,0.88
2018-07-01T00:17:43.352Z,1.30
2018-07-01T00:20:11.680Z,0.90
2018-07-01T00:22:40.263Z,0.85
2018-07-01T00:25:08.748Z,0.80
2018-07-01T00:27:37.067Z,0.90
2018-07-01T00:30:05.972Z,0.88
2018-07-01T00:32:34.310Z,0.98
2018-07-01T00:35:02.628Z,0.93
2018-07-01T00:37:30.727Z,0.93
2018-07-01T00:39:59.042Z,1.00
2018-07-01T00:42:27.471Z,0.98
2018-07-01T00:44:55.900Z,0.82
2018-07-01T00:47:24.328Z,0.98
2018-07-01T00:49:52.758Z,0.72
2018-07-01T00:52:21.394Z,0.88
2018-07-01T00:54:49.866Z,0.70
2018-07-01T00:57:18.226Z,1.12
2018-07-01T00:59:46.610Z,0.70
2018-07-01T01:02:14.945Z,0.90
2018-07-01T01:04:43.290Z,0.70
2018-07-01T01:07:11.750Z,1.22
2018-07-01T01:09:39.788Z,0.78
2018-07-01T01:12:08.141Z,0.93
2018-07-01T01:14:36.490Z,0.75
2018-07-01T01:17:04.901Z,0.82
2018-07-01T01:19:33.444Z,0.82
2018-07-01T01:22:04.700Z,0.88
2018-07-01T01:24:33.181Z,1.15
2018-07-01T01:27:01.643Z,0.90
2018-07-01T01:29:30.200Z,0.90
2018-07-01T01:31:58.601Z,0.88
2018-07-01T01:34:26.995Z,1.02
2018-07-01T01:36:55.379Z,0.80
2018-07-01T01:39:26.690Z,0.80
2018-07-01T01:41:58.784Z,0.75
2018-07-01T01:45:06.756Z,0.90
2018-07-01T01:48:40.349Z,0.88
2018-07-01T01:53:16.928Z,1.00
2018-07-01T01:55:49.712Z,1.15
2018-07-01T01:58:24.959Z,0.90
2018-07-01T02:03:02.408Z,0.72
2018-07-01T02:05:40.660Z,0.90
2018-07-01T02:08:14.499Z,0.82
2018-07-01T02:10:42.856Z,0.70
2018-07-01T02:13:11.192Z,0.90
2018-07-01T02:15:46.376Z,1.07
2018-07-01T02:18:14.972Z,0.93
2018-07-01T02:20:43.814Z,0.90
2018-07-01T02:23:22.545Z,0.80
2018-07-01T02:25:50.950Z,0.95
2018-07-01T02:28:19.443Z,0.90
2018-07-01T02:30:48.086Z,1.05
2018-07-01T02:33:16.416Z,1.07
2018-07-01T02:35:44.692Z,0.80
2018-07-01T02:38:13.081Z,1.00
2018-07-01T02:40:42.333Z,0.82
2018-07-01T02:43:11.992Z,0.80
2018-07-01T02:45:40.333Z,0.98
2018-07-01T02:48:09.137Z,0.98
2018-07-01T02:50:37.464Z,0.80
2018-07-01T02:53:05.812Z,0.70
2018-07-01T02:55:34.255Z,0.80
2018-07-01T02:58:02.653Z,0.82
2018-07-01T03:00:30.949Z,0.93
2018-07-01T03:02:59.028Z,1.07
2018-07-01T03:05:27.333Z,1.05
2018-07-01T03:07:55.680Z,0.88
2018-07-01T03:10:24.026Z,0.88
2018-07-01T03:12:52.384Z,1.20
2018-07-01T03:15:20.808Z,0.70
2018-07-01T03:17:49.320Z,0.70
2018-07-01T03:20:17.848Z,0.70
2018-07-01T03:22:46.228Z,1.22
2018-07-01T03:25:14.316Z,0.90
2018-07-01T03:27:42.695Z,0.72
2018-07-01T03:30:10.755Z,0.95
2018-07-01T03:32:39.133Z,0.98
2018-07-01T03:35:07.499Z,0.93
2018-07-01T03:37:35.827Z,0.93
2018-07-01T03:40:04.256Z,0.78
2018-07-01T03:42:32.644Z,0.60
2018-07-01T03:45:00.926Z,1.22
2018-07-01T03:47:29.242Z,0.70
2018-07-01T03:49:57.572Z,0.98
2018-07-01T03:52:25.932Z,0.85
2018-07-01T03:54:54.300Z,0.88
2018-07-01T03:57:22.728Z,1.10
2018-07-01T03:59:51.099Z,0.90
2018-07-01T04:02:19.400Z,0.80
2018-07-01T04:04:47.722Z,1.00
2018-07-01T04:07:16.053Z,0.90
2018-07-01T04:09:44.386Z,0.88
2018-07-01T04:12:12.720Z,0.70
2018-07-01T04:14:41.116Z,0.80
2018-07-01T04:17:09.448Z,0.70
2018-07-01T04:19:38.955Z,0.90
2018-07-01T04:22:08.542Z,1.20
2018-07-01T04:24:37.400Z,0.98
2018-07-01T04:27:05.828Z,0.70
2018-07-01T04:29:35.314Z,0.80
2018-07-01T04:32:03.772Z,0.90
2018-07-01T04:34:32.190Z,1.00
2018-07-01T04:37:00.730Z,0.98
2018-07-01T04:39:29.283Z,1.05
2018-07-01T04:41:57.401Z,0.70
2018-07-01T04:44:25.758Z,0.82
2018-07-01T04:46:54.330Z,1.02
2018-07-01T04:49:22.644Z,0.75
2018-07-01T04:51:51.064Z,0.70
2018-07-01T04:54:19.484Z,0.80
2018-07-01T04:56:47.842Z,0.98
2018-07-01T04:59:16.179Z,0.80
2018-07-01T05:01:44.583Z,0.82
2018-07-01T05:04:13.025Z,1.05
2018-07-01T05:06:41.330Z,0.88
2018-07-01T05:09:12.152Z,0.90
2018-07-01T05:11:41.131Z,0.70
2018-07-01T05:14:09.689Z,1.00
2018-07-01T05:16:41.898Z,0.80
2018-07-01T05:19:10.468Z,1.20
2018-07-01T05:21:38.897Z,0.80
2018-07-01T05:24:07.394Z,0.70
2018-07-01T05:26:35.755Z,0.80
2018-07-01T05:29:04.085Z,0.98
2018-07-01T05:31:32.414Z,0.82
2018-07-01T05:34:00.868Z,0.88
2018-07-01T05:36:29.159Z,0.80
2018-07-01T05:38:57.817Z,0.70
2018-07-01T05:41:26.105Z,0.78
2018-07-01T05:43:54.727Z,0.70
2018-07-01T05:46:23.062Z,0.50
2018-07-01T05:48:51.516Z,0.75
2018-07-01T05:51:19.850Z,0.60
2018-07-01T05:53:48.551Z,0.70
2018-07-01T05:56:16.888Z,0.68
2018-07-01T05:58:45.330Z,0.75
2018-07-01T06:01:13.730Z,0.60
2018-07-01T06:03:42.932Z,0.88
2018-07-01T06:06:12.920Z,0.93
2018-07-01T06:08:41.271Z,0.50
2018-07-01T06:11:09.662Z,0.70
2018-07-01T06:13:37.992Z,0.80
2018-07-01T06:16:06.767Z,0.68
2018-07-01T06:18:35.955Z,0.70
2018-07-01T06:21:04.393Z,0.60
2018-07-01T06:23:32.701Z,0.90
2018-07-01T06:26:01.096Z,0.80
2018-07-01T06:28:29.795Z,0.60
2018-07-01T06:30:58.091Z,0.60
2018-07-01T06:33:26.436Z,0.80
2018-07-01T06:35:54.853Z,0.50
2018-07-01T06:38:23.369Z,0.90
2018-07-01T06:40:52.199Z,0.60
2018-07-01T06:43:20.609Z,0.70
2018-07-01T06:45:49.032Z,0.55
2018-07-01T06:48:17.391Z,0.72
2018-07-01T06:50:45.713Z,0.60
2018-07-01T06:53:14.015Z,0.60
2018-07-01T06:55:42.323Z,0.55
2018-07-01T06:58:10.667Z,0.60
2018-07-01T07:00:39.013Z,0.72
2018-07-01T07:03:07.348Z,0.60
2018-07-01T07:05:35.657Z,0.50
2018-07-01T07:08:04.006Z,0.65
2018-07-01T07:10:32.352Z,0.70
2018-07-01T07:13:00.640Z,0.45
2018-07-01T07:15:29.122Z,0.50
2018-07-01T07:17:58.062Z,0.40
2018-07-01T07:20:26.537Z,0.50
2018-07-01T07:22:54.975Z,0.45
2018-07-01T07:25:24.337Z,0.50
2018-07-01T07:27:52.806Z,0.42
2018-07-01T07:30:21.115Z,0.50
2018-07-01T07:32:49.551Z,0.60
2018-07-01T07:35:17.912Z,0.68
2018-07-01T07:37:46.229Z,0.40
2018-07-01T07:40:14.583Z,0.65
2018-07-01T07:42:42.880Z,0.57
2018-07-01T07:45:11.285Z,0.62
2018-07-01T07:47:39.616Z,0.50
2018-07-01T07:50:08.017Z,0.37
2018-07-01T07:52:36.395Z,0.55
2018-07-01T07:55:04.912Z,0.55
2018-07-01T07:57:33.460Z,0.42
2018-07-01T08:00:02.005Z,0.55
2018-07-01T08:02:30.311Z,0.42
2018-07-01T08:04:58.702Z,0.50
2018-07-01T08:07:27.127Z,0.40
2018-07-01T08:09:55.505Z,0.42
2018-07-01T08:12:23.832Z,0.55
2018-07-01T08:14:52.244Z,0.70
2018-07-01T08:17:20.656Z,0.40
2018-07-01T08:19:49.037Z,0.50
2018-07-01T08:22:17.416Z,0.42
2018-07-01T08:24:45.843Z,0.40
2018-07-01T08:27:14.387Z,0.60
2018-07-01T08:29:42.743Z,0.60
2018-07-01T08:32:11.733Z,0.53
2018-07-01T08:34:40.336Z,0.55
2018-07-01T08:37:08.440Z,0.40
2018-07-01T08:39:36.888Z,0.62
2018-07-01T08:42:27.312Z,0.60
2018-07-01T08:44:56.429Z,0.62
2018-07-01T08:47:25.401Z,0.42
2018-07-01T08:49:54.654Z,0.80
2018-07-01T08:52:23.332Z,0.57
2018-07-01T08:54:53.105Z,0.40
2018-07-01T08:57:22.323Z,0.40
2018-07-01T08:59:51.461Z,0.70
2018-07-01T09:02:20.634Z,0.50
2018-07-01T09:04:49.332Z,0.60
2018-07-01T09:07:18.314Z,0.55
2018-07-01T09:09:47.470Z,0.42
2018-07-01T09:12:15.970Z,0.33
2018-07-01T09:14:44.590Z,0.62
2018-07-01T09:17:12.988Z,0.40
2018-07-01T09:19:41.395Z,0.50
2018-07-01T09:22:09.784Z,0.40
2018-07-01T09:24:38.164Z,0.35
2018-07-01T09:27:06.716Z,0.55
2018-07-01T09:29:37.272Z,0.53
2018-07-01T09:32:08.636Z,0.50
2018-07-01T09:34:37.028Z,0.62
2018-07-01T09:37:05.422Z,0.65
2018-07-01T09:39:33.741Z,0.45
2018-07-01T09:42:02.171Z,0.53
2018-07-01T09:44:30.529Z,0.50
2018-07-01T09:46:58.853Z,0.50
2018-07-01T09:49:30.324Z,0.40
2018-07-01T09:51:58.647Z,0.40
2018-07-01T09:54:27.114Z,0.72
2018-07-01T09:56:55.802Z,0.50
2018-07-01T09:59:24.514Z,0.35
2018-07-01T10:01:53.323Z,0.50
2018-07-01T10:04:22.098Z,0.50
2018-07-01T10:06:51.646Z,0.60
2018-07-01T10:09:21.048Z,0.50
2018-07-01T10:11:49.684Z,0.40
2018-07-01T10:14:18.333Z,0.50
2018-07-01T10:16:47.487Z,0.40
2018-07-01T10:23:56.027Z,0.40
2018-07-01T10:26:25.443Z,1.02
2018-07-01T10:29:02.993Z,0.47
2018-07-01T10:31:31.841Z,0.50
2018-07-01T10:34:00.698Z,0.50
2018-07-01T10:36:33.367Z,0.68
2018-07-01T10:39:03.457Z,0.55
2018-07-01T10:41:33.220Z,0.65
2018-07-01T10:44:03.718Z,0.60
2018-07-01T10:46:35.180Z,0.60
2018-07-01T10:49:03.612Z,0.68
2018-07-01T10:51:32.761Z,0.98
2018-07-01T10:54:01.147Z,0.70
2018-07-01T10:56:29.711Z,0.95
2018-07-01T10:58:58.351Z,0.60
2018-07-01T11:01:27.005Z,0.55
2018-07-01T11:03:55.491Z,0.50
2018-07-01T11:06:23.952Z,0.30
2018-07-01T11:08:52.304Z,0.53
2018-07-01T11:11:20.653Z,0.40
2018-07-01T11:13:48.958Z,0.82
2018-07-01T11:16:17.327Z,0.60
2018-07-01T11:18:45.693Z,0.57
2018-07-01T11:21:13.996Z,0.50
2018-07-01T11:23:42.510Z,0.60
2018-07-01T11:26:10.903Z,0.60
2018-07-01T11:28:39.239Z,0.45
2018-07-01T11:31:07.665Z,0.60
2018-07-01T11:33:36.323Z,0.93
2018-07-01T11:36:04.896Z,0.50
2018-07-01T11:38:33.509Z,0.40
2018-07-01T11:41:01.977Z,0.60
2018-07-01T11:43:30.355Z,0.75
2018-07-01T11:45:58.738Z,0.75
2018-07-01T11:48:31.386Z,0.30
2018-07-01T11:50:59.786Z,0.42
2018-07-01T11:53:28.113Z,0.60
2018-07-01T11:55:56.424Z,0.50
2018-07-01T11:58:24.720Z,0.50
2018-07-01T12:00:53.093Z,0.55
2018-07-01T12:03:21.450Z,0.60
2018-07-01T12:05:49.787Z,0.33
2018-07-01T12:08:18.127Z,0.40
2018-07-01T12:10:46.467Z,0.30
2018-07-01T12:13:14.852Z,0.80
2018-07-01T12:15:43.361Z,0.37
2018-07-01T12:18:11.843Z,0.70
2018-07-01T12:20:40.317Z,0.40
2018-07-01T12:23:09.896Z,0.40
2018-07-01T12:25:38.416Z,0.50
2018-07-01T12:28:06.916Z,0.55
2018-07-01T12:30:35.706Z,0.40
2018-07-01T12:33:03.851Z,0.60
2018-07-01T12:35:32.180Z,0.70
2018-07-01T12:38:00.750Z,0.82
2018-07-01T12:40:29.153Z,0.50
2018-07-01T12:42:57.652Z,0.50
2018-07-01T12:45:26.159Z,0.42
2018-07-01T12:47:54.807Z,0.50
2018-07-01T12:50:23.686Z,1.02
2018-07-01T12:52:52.415Z,0.42
2018-07-01T12:55:22.330Z,0.50
2018-07-01T12:57:50.919Z,0.47
2018-07-01T13:00:19.628Z,0.55
2018-07-01T13:02:48.532Z,0.50
2018-07-01T13:05:17.689Z,0.60
2018-07-01T13:07:47.970Z,0.60
2018-07-01T13:10:16.468Z,0.50
2018-07-01T13:12:44.875Z,1.00
2018-07-01T13:15:13.336Z,0.70
2018-07-01T13:17:41.757Z,0.78
2018-07-01T13:20:10.085Z,0.90
2018-07-01T13:22:38.473Z,0.50
2018-07-01T13:25:06.839Z,0.50
2018-07-01T13:27:35.225Z,0.33
2018-07-01T13:30:03.702Z,0.50
2018-07-01T13:32:32.090Z,0.50
2018-07-01T13:35:00.430Z,0.80
2018-07-01T13:37:28.769Z,0.78
2018-07-01T13:39:57.353Z,0.50
2018-07-01T13:42:25.949Z,0.60
2018-07-01T13:44:54.976Z,0.53
2018-07-01T13:47:23.786Z,0.53
2018-07-01T13:49:52.236Z,0.42
2018-07-01T13:52:20.611Z,0.50
2018-07-01T13:54:48.998Z,0.47
2018-07-01T13:57:17.463Z,0.65
2018-07-01T13:59:45.765Z,0.80
2018-07-01T14:02:14.124Z,0.60
2018-07-01T14:04:42.561Z,0.72
2018-07-01T14:07:11.060Z,0.80
2018-07-01T14:09:39.565Z,0.57
2018-07-01T14:12:07.787Z,0.60
2018-07-01T14:14:36.201Z,0.60
2018-07-01T14:17:04.842Z,0.50
2018-07-01T14:19:33.419Z,0.40
2018-07-01T14:22:01.849Z,0.70
2018-07-01T14:24:30.424Z,0.50
2018-07-01T14:26:59.097Z,0.70
2018-07-01T14:29:27.440Z,0.50
2018-07-01T14:31:55.839Z,0.60
2018-07-01T14:34:24.256Z,0.47
2018-07-01T14:36:53.010Z,0.30
2018-07-01T14:39:21.352Z,0.60
2018-07-01T14:41:49.803Z,0.72
2018-07-01T14:44:18.176Z,0.40
2018-07-01T14:46:46.737Z,0.70
2018-07-01T14:49:15.165Z,0.68
2018-07-01T14:51:43.547Z,0.53
2018-07-01T14:54:11.953Z,0.60
2018-07-01T14:56:41.558Z,0.78
2018-07-01T14:59:09.980Z,0.65
2018-07-01T15:01:38.446Z,0.40
2018-07-01T15:04:06.910Z,0.50
2018-07-01T15:06:35.431Z,0.53
2018-07-01T15:09:06.049Z,0.72
2018-07-01T15:11:34.651Z,0.70
2018-07-01T15:14:03.439Z,0.70
2018-07-01T15:16:31.899Z,0.45
2018-07-01T15:19:00.656Z,0.88
2018-07-01T15:21:29.029Z,0.42
2018-07-01T15:23:57.537Z,0.70
2018-07-01T15:26:25.886Z,0.55
2018-07-01T15:28:54.420Z,0.75
2018-07-01T15:31:22.825Z,1.15
2018-07-01T15:33:51.139Z,0.53
2018-07-01T15:36:19.475Z,0.40
2018-07-01T15:38:47.777Z,0.50
2018-07-01T15:41:16.248Z,0.60
2018-07-01T15:43:44.723Z,0.40
2018-07-01T15:46:13.299Z,0.70
2018-07-01T15:48:41.974Z,0.72
2018-07-01T15:51:10.343Z,0.57
2018-07-01T15:53:38.849Z,0.70
2018-07-01T15:56:07.189Z,0.50
2018-07-01T15:58:35.738Z,0.70
2018-07-01T16:01:04.320Z,0.78
2018-07-01T16:03:32.669Z,0.93
2018-07-01T16:06:01.121Z,0.50
2018-07-01T16:08:29.607Z,0.50
2018-07-01T16:10:57.947Z,0.70
2018-07-01T16:13:26.320Z,0.50
2018-07-01T16:15:54.688Z,0.70
2018-07-01T16:18:23.042Z,0.57
2018-07-01T16:20:51.573Z,0.55
2018-07-01T16:23:20.074Z,0.37
2018-07-01T16:25:53.759Z,0.30
2018-07-01T16:29:30.251Z,0.65
2018-07-01T16:31:58.563Z,0.60
2018-07-01T16:34:27.028Z,0.37
2018-07-01T16:36:55.527Z,0.50
2018-07-01T16:39:23.912Z,0.60
2018-07-01T16:41:52.723Z,0.40
2018-07-01T16:44:21.287Z,0.50
2018-07-01T16:46:49.635Z,0.55
2018-07-01T16:49:18.055Z,0.50
2018-07-01T16:51:46.512Z,0.62
2018-07-01T16:54:14.870Z,0.85
2018-07-01T16:56:43.026Z,0.80
2018-07-01T16:59:11.358Z,0.70
2018-07-01T17:01:39.881Z,0.57
2018-07-01T17:04:10.539Z,0.40
2018-07-01T17:06:38.954Z,0.57
2018-07-01T17:09:11.457Z,0.70
2018-07-01T17:11:39.807Z,0.50
2018-07-01T17:14:08.134Z,0.72
2018-07-01T17:16:36.194Z,1.52
2018-07-01T17:19:05.812Z,0.47
2018-07-01T17:21:34.541Z,0.93
2018-07-01T17:24:03.164Z,0.37
2018-07-01T17:26:31.488Z,0.57
2018-07-01T17:29:00.018Z,0.40
2018-07-01T17:31:33.704Z,0.50
2018-07-01T17:34:02.073Z,0.30
2018-07-01T17:36:30.410Z,0.62
2018-07-01T17:38:59.191Z,0.55
2018-07-01T17:41:27.542Z,0.47
2018-07-01T17:43:55.899Z,0.50
2018-07-01T17:46:24.206Z,0.60
2018-07-01T17:48:52.558Z,0.62
2018-07-01T17:51:21.033Z,0.42
2018-07-01T17:53:53.603Z,0.90
2018-07-01T17:56:22.146Z,0.65
2018-07-01T17:58:50.688Z,0.40
2018-07-01T18:01:19.095Z,0.40
2018-07-01T18:03:47.593Z,0.47
2018-07-01T18:06:16.134Z,0.47
2018-07-01T18:08:44.841Z,0.40
2018-07-01T18:11:13.521Z,0.75
2018-07-01T18:13:42.243Z,0.62
2018-07-01T18:16:10.914Z,1.40
2018-07-01T18:18:39.585Z,0.50
2018-07-01T18:21:08.457Z,0.57
2018-07-01T18:24:11.122Z,0.40
2018-07-01T18:26:08.771Z,0.30
2018-07-01T18:28:48.660Z,0.62
2018-07-01T18:31:07.479Z,0.40
2018-07-01T18:33:36.151Z,0.50
2018-07-01T18:36:08.172Z,0.40
2018-07-01T18:38:37.009Z,0.60
2018-07-01T18:41:08.746Z,0.82
2018-07-01T18:43:38.853Z,0.70
2018-07-01T18:46:07.523Z,0.70
2018-07-01T18:48:36.256Z,0.65
2018-07-01T18:51:04.908Z,0.80
2018-07-01T18:53:33.520Z,0.90
2018-07-01T18:56:02.333Z,1.05
2018-07-01T18:58:31.013Z,1.17
2018-07-01T19:00:59.334Z,1.10
2018-07-01T19:03:28.054Z,1.40
2018-07-01T19:05:56.689Z,1.30
2018-07-01T19:08:25.262Z,1.30
2018-07-01T19:10:53.969Z,1.05
2018-07-01T19:13:22.644Z,1.20
2018-07-01T19:15:51.673Z,2.02
2018-07-01T19:18:20.579Z,1.05
2018-07-01T19:20:49.496Z,1.17
2018-07-01T19:23:18.520Z,1.20
2018-07-01T19:25:47.682Z,1.32
2018-07-01T19:28:16.455Z,1.52
2018-07-01T19:30:45.063Z,1.55
2018-07-01T19:33:13.632Z,1.47
2018-07-01T19:35:42.286Z,1.42
2018-07-01T19:38:10.924Z,1.30
2018-07-01T19:40:39.556Z,1.37
2018-07-01T19:43:08.492Z,1.20
2018-07-01T19:45:37.033Z,1.45
2018-07-01T19:48:06.110Z,1.22
2018-07-01T19:50:34.693Z,1.50
2018-07-01T19:53:03.420Z,1.20
2018-07-01T19:55:32.146Z,1.20
2018-07-01T19:58:00.975Z,1.12
2018-07-01T20:00:29.637Z,0.78
2018-07-01T20:02:59.242Z,1.20
2018-07-01T20:05:27.960Z,0.95
2018-07-01T20:07:56.596Z,1.00
2018-07-01T20:10:25.331Z,0.98
2018-07-01T20:12:54.091Z,0.95
2018-07-01T20:15:24.030Z,1.00
2018-07-01T20:17:52.673Z,1.20
2018-07-01T20:20:21.823Z,0.80
2018-07-01T20:22:50.217Z,1.20
2018-07-01T20:25:18.552Z,1.00
2018-07-01T20:27:46.903Z,0.90
2018-07-01T20:30:15.431Z,0.88
2018-07-01T20:32:48.594Z,1.17
2018-07-01T20:35:16.661Z,0.90
2018-07-01T20:37:44.667Z,0.82
2018-07-01T20:40:13.115Z,0.70
2018-07-01T20:42:41.300Z,0.80
2018-07-01T20:45:09.867Z,1.00
2018-07-01T20:47:38.420Z,0.90
2018-07-01T20:50:06.748Z,0.78
2018-07-01T20:52:35.057Z,0.85
2018-07-01T20:55:03.588Z,1.10
2018-07-01T20:57:32.299Z,0.80
2018-07-01T21:00:00.855Z,0.72
2018-07-01T21:02:29.230Z,0.50
2018-07-01T21:04:57.664Z,0.70
2018-07-01T21:07:26.054Z,0.80
2018-07-01T21:09:54.420Z,1.02
2018-07-01T21:12:22.763Z,0.80
2018-07-01T21:14:51.085Z,0.88
2018-07-01T21:17:21.719Z,0.85
2018-07-01T21:19:50.062Z,0.75
2018-07-01T21:22:18.539Z,0.60
2018-07-01T21:24:47.794Z,0.68
2018-07-01T21:27:16.101Z,1.17
2018-07-01T21:29:44.481Z,0.90
2018-07-01T21:32:12.916Z,0.93
2018-07-01T21:34:41.291Z,0.70
2018-07-01T21:37:09.723Z,1.10
2018-07-01T21:39:38.170Z,0.80
2018-07-01T21:42:06.590Z,0.78
2018-07-01T21:44:35.017Z,0.80
2018-07-01T21:47:03.348Z,0.70
2018-07-01T21:49:31.651Z,0.65
2018-07-01T21:52:00.063Z,0.88
2018-07-01T21:54:28.410Z,0.80
2018-07-01T21:56:56.746Z,0.80
2018-07-01T21:59:25.120Z,0.62
2018-07-01T22:01:53.504Z,0.60
2018-07-01T22:04:21.826Z,0.70
2018-07-01T22:07:04.765Z,0.60
2018-07-01T22:09:33.102Z,0.80
2018-07-01T22:12:12.811Z,0.62
2018-07-01T22:17:00.231Z,0.70
2018-07-01T22:19:28.620Z,0.60
2018-07-01T22:21:57.578Z,1.00
2018-07-01T22:24:27.152Z,0.60
2018-07-01T22:26:55.464Z,0.60
2018-07-01T22:29:23.898Z,0.85
2018-07-01T22:31:52.246Z,0.75
2018-07-01T22:34:21.346Z,0.62
2018-07-01T22:36:50.086Z,1.07
2018-07-01T22:39:23.456Z,0.68
2018-07-01T22:41:52.855Z,0.60
2018-07-01T22:44:21.648Z,0.88
2018-07-01T22:46:50.847Z,0.50
2018-07-01T22:49:19.215Z,0.50
2018-07-01T22:51:47.514Z,0.40
2018-07-01T22:54:15.841Z,0.85
2018-07-01T22:56:44.204Z,0.90
2018-07-01T22:59:12.488Z,0.80
2018-07-01T23:01:59.002Z,0.72
2018-07-01T23:04:27.364Z,0.70
2018-07-01T23:06:55.740Z,0.62
2018-07-01T23:09:24.101Z,0.50
2018-07-01T23:11:52.514Z,0.75
2018-07-01T23:14:20.976Z,0.70
2018-07-01T23:16:49.299Z,0.78
2018-07-01T23:19:17.656Z,0.98
2018-07-01T23:21:45.956Z,0.60
2018-07-01T23:24:14.282Z,0.60
2018-07-01T23:26:42.636Z,0.50
2018-07-01T23:29:10.950Z,0.70
2018-07-01T23:31:39.277Z,0.50
2018-07-01T23:34:07.563Z,0.70
2018-07-01T23:36:35.876Z,0.70
2018-07-01T23:39:05.651Z,0.60
2018-07-01T23:41:33.981Z,0.60
2018-07-01T23:44:02.383Z,0.90
2018-07-01T23:46:30.740Z,0.78
2018-07-01T23:48:59.136Z,0.70
2018-07-01T23:51:27.532Z,0.72
2018-07-01T23:53:55.864Z,0.70
2018-07-01T23:56:24.310Z,0.88
2018-07-01T23:58:52.699Z,0.60
